createdAt,value
2019-05-05T00:00:05.533Z,4.30
2019-05-05T00:02:35.916Z,4.40
2019-05-05T00:05:16.847Z,4.40
2019-05-05T00:07:45.289Z,4.40
2019-05-05T00:10:18.202Z,4.40
2019-05-05T00:12:55.044Z,4.30
2019-05-05T00:15:40.406Z,4.30
2019-05-05T00:18:08.843Z,4.30
2019-05-05T00:20:37.302Z,4.30
2019-05-05T00:23:05.823Z,4.30
2019-05-05T00:25:34.376Z,4.30
2019-05-05T00:28:04.879Z,4.30
2019-05-05T00:30:34.333Z,4.30
2019-05-05T00:33:05.396Z,4.30
2019-05-05T00:35:34.502Z,4.30
2019-05-05T00:38:05.081Z,4.30
2019-05-05T00:40:35.275Z,4.30
2019-05-05T00:43:05.348Z,4.30
2019-05-05T00:45:34.782Z,4.30
2019-05-05T00:48:10.652Z,4.40
2019-05-05T00:50:39.119Z,4.30
2019-05-05T00:53:07.618Z,4.30
2019-05-05T00:55:37.594Z,4.30
2019-05-05T00:58:06.096Z,4.30
2019-05-05T01:00:44.360Z,4.30
2019-05-05T01:03:15.240Z,4.30
2019-05-05T01:05:45.550Z,4.30
2019-05-05T01:08:18.590Z,4.20
2019-05-05T01:10:47.164Z,4.20
2019-05-05T01:13:15.707Z,4.20
2019-05-05T01:15:44.921Z,4.20
2019-05-05T01:18:15.258Z,4.20
2019-05-05T01:20:44.869Z,4.20
2019-05-05T01:23:15.040Z,4.20
2019-05-05T01:25:45.517Z,4.20
2019-05-05T01:28:14.390Z,4.10
2019-05-05T01:30:44.675Z,4.10
2019-05-05T01:33:20.714Z,4.10
2019-05-05T01:35:49.162Z,4.10
2019-05-05T01:38:19.312Z,4.10
2019-05-05T01:40:52.420Z,4.10
2019-05-05T01:43:20.888Z,4.10
2019-05-05T01:45:49.366Z,4.10
2019-05-05T01:48:17.806Z,4.10
2019-05-05T01:50:46.249Z,4.10
2019-05-05T01:53:15.205Z,4.10
2019-05-05T01:55:45.156Z,4.10
2019-05-05T01:58:15.334Z,4.00
2019-05-05T02:00:45.210Z,4.00
2019-05-05T02:03:14.733Z,4.00
2019-05-05T02:05:45.242Z,4.00
2019-05-05T02:08:15.304Z,4.00
2019-05-05T02:10:45.395Z,3.90
2019-05-05T02:13:16.094Z,3.90
2019-05-05T02:15:44.650Z,3.90
2019-05-05T02:18:14.893Z,3.90
2019-05-05T02:20:48.764Z,3.90
2019-05-05T02:23:17.688Z,3.90
2019-05-05T02:25:46.542Z,3.90
2019-05-05T02:28:15.158Z,3.90
2019-05-05T02:30:51.264Z,3.90
2019-05-05T02:33:21.079Z,3.80
2019-05-05T02:35:49.526Z,3.80
2019-05-05T02:38:18.147Z,3.80
2019-05-05T02:40:48.337Z,3.80
2019-05-05T02:43:19.210Z,3.80
2019-05-05T02:46:01.745Z,3.70
2019-05-05T02:48:31.936Z,3.70
2019-05-05T02:51:03.118Z,3.60
2019-05-05T02:53:34.925Z,3.60
2019-05-05T02:56:06.375Z,3.60
2019-05-05T02:58:38.255Z,3.60
2019-05-05T03:01:09.063Z,3.60
2019-05-05T03:03:40.372Z,3.60
2019-05-05T03:06:08.818Z,3.60
2019-05-05T03:08:40.167Z,3.50
2019-05-05T03:11:11.439Z,3.50
2019-05-05T03:13:41.723Z,3.50
2019-05-05T03:16:18.459Z,3.50
2019-05-05T03:18:47.543Z,3.50
2019-05-05T03:21:17.990Z,3.40
2019-05-05T03:23:46.984Z,3.50
2019-05-05T03:26:16.846Z,3.50
2019-05-05T03:28:54.451Z,3.50
2019-05-05T03:31:26.308Z,3.60
2019-05-05T03:33:56.191Z,3.60
2019-05-05T03:36:27.335Z,3.60
2019-05-05T03:38:56.147Z,3.60
2019-05-05T03:41:36.283Z,3.60
2019-05-05T03:44:10.177Z,3.60
2019-05-05T03:46:39.391Z,3.60
2019-05-05T03:49:07.980Z,3.50
2019-05-05T03:51:37.505Z,3.50
2019-05-05T03:54:07.171Z,3.50
2019-05-05T03:56:36.082Z,3.40
2019-05-05T03:59:04.994Z,3.40
2019-05-05T04:01:37.883Z,3.30
2019-05-05T04:04:24.431Z,3.30
2019-05-05T04:06:54.794Z,3.20
2019-05-05T04:09:24.343Z,3.10
2019-05-05T04:11:53.968Z,3.10
2019-05-05T04:14:24.761Z,3.10
2019-05-05T04:16:57.722Z,3.10
2019-05-05T04:19:27.831Z,3.10
2019-05-05T04:21:56.465Z,3.10
2019-05-05T04:24:25.296Z,3.10
2019-05-05T04:26:54.564Z,3.10
2019-05-05T04:29:24.375Z,3.10
2019-05-05T04:31:54.001Z,3.00
2019-05-05T04:34:24.099Z,3.00
2019-05-05T04:36:54.658Z,3.00
2019-05-05T04:39:23.701Z,2.90
2019-05-05T04:41:54.461Z,2.90
2019-05-05T04:44:23.659Z,2.90
2019-05-05T04:46:54.665Z,2.90
2019-05-05T04:49:34.078Z,2.90
2019-05-05T04:52:10.255Z,2.90
2019-05-05T04:54:40.339Z,2.90
2019-05-05T04:57:08.792Z,2.90
2019-05-05T04:59:37.258Z,2.90
2019-05-05T05:02:07.351Z,3.00
2019-05-05T05:04:39.891Z,2.90
2019-05-05T05:07:08.675Z,3.00
2019-05-05T05:09:38.564Z,3.10
2019-05-05T05:12:07.069Z,3.10
2019-05-05T05:14:35.577Z,3.00
2019-05-05T05:17:05.722Z,3.00
2019-05-05T05:19:34.186Z,3.00
2019-05-05T05:22:04.845Z,3.10
2019-05-05T05:24:34.300Z,3.10
2019-05-05T05:27:05.031Z,3.20
2019-05-05T05:29:34.541Z,3.20
2019-05-05T05:32:04.150Z,3.20
2019-05-05T05:34:34.403Z,3.20
2019-05-05T05:37:04.220Z,3.10
2019-05-05T05:39:34.754Z,3.30
2019-05-05T05:42:04.541Z,3.40
2019-05-05T05:44:44.458Z,3.30
2019-05-05T05:47:15.158Z,3.40
2019-05-05T05:49:45.273Z,3.40
2019-05-05T05:52:18.971Z,3.50
2019-05-05T05:54:44.349Z,3.60
2019-05-05T05:57:13.580Z,3.70
2019-05-05T05:59:44.369Z,3.70
2019-05-05T06:02:15.475Z,3.80
2019-05-05T06:04:44.579Z,3.90
2019-05-05T06:07:14.201Z,4.00
2019-05-05T06:09:43.765Z,4.10
2019-05-05T06:12:14.222Z,4.10
2019-05-05T06:14:44.860Z,4.20
2019-05-05T06:17:13.610Z,4.20
2019-05-05T06:19:44.420Z,4.20
2019-05-05T06:22:15.206Z,4.20
2019-05-05T06:24:43.952Z,4.20
2019-05-05T06:27:14.323Z,4.10
2019-05-05T06:29:43.852Z,4.20
2019-05-05T06:32:14.567Z,4.20
2019-05-05T06:34:44.272Z,4.20
2019-05-05T06:37:14.480Z,4.30
2019-05-05T06:39:44.039Z,4.30
2019-05-05T06:42:19.777Z,4.40
2019-05-05T06:44:49.874Z,4.40
2019-05-05T06:47:19.995Z,4.50
2019-05-05T06:49:48.451Z,4.60
2019-05-05T06:52:16.921Z,4.80
2019-05-05T06:54:45.388Z,5.10
2019-05-05T06:57:13.959Z,5.30
2019-05-05T06:59:49.511Z,5.50
2019-05-05T07:02:18.281Z,5.60
2019-05-05T07:04:46.726Z,5.80
2019-05-05T07:07:15.173Z,5.90
2019-05-05T07:09:44.390Z,6.20
2019-05-05T07:12:13.813Z,6.60
2019-05-05T07:14:44.576Z,6.90
2019-05-05T07:17:14.112Z,7.00
2019-05-05T07:19:45.032Z,6.90
2019-05-05T07:22:14.049Z,7.00
2019-05-05T07:24:43.671Z,7.00
2019-05-05T07:27:13.881Z,7.20
2019-05-05T07:29:43.701Z,7.00
2019-05-05T07:32:14.178Z,6.90
2019-05-05T07:34:56.619Z,7.00
2019-05-05T07:37:25.110Z,7.10
2019-05-05T07:39:54.147Z,7.20
2019-05-05T07:42:24.362Z,7.10
2019-05-05T07:44:54.726Z,7.10
2019-05-05T07:47:23.834Z,6.90
2019-05-05T07:49:53.548Z,6.80
2019-05-05T07:52:23.741Z,6.90
2019-05-05T07:54:52.416Z,6.90
2019-05-05T07:57:20.886Z,7.00
2019-05-05T07:59:49.369Z,7.20
2019-05-05T08:02:17.814Z,7.30
2019-05-05T08:04:46.423Z,7.40
2019-05-05T08:07:14.912Z,7.70
2019-05-05T08:09:44.504Z,8.50
2019-05-05T08:12:13.692Z,9.50
2019-05-05T08:14:44.386Z,10.20
2019-05-05T08:17:23.589Z,11.10
2019-05-05T08:19:59.899Z,11.70
2019-05-05T08:22:28.359Z,11.20
2019-05-05T08:24:58.761Z,10.40
2019-05-05T08:27:31.311Z,9.60
2019-05-05T08:30:07.315Z,9.00
2019-05-05T08:32:37.409Z,8.80
2019-05-05T08:35:08.887Z,8.80
2019-05-05T08:37:37.314Z,8.90
2019-05-05T08:40:07.015Z,8.70
2019-05-05T08:42:35.503Z,8.50
2019-05-05T08:45:06.279Z,8.40
2019-05-05T08:47:44.044Z,8.50
2019-05-05T08:50:14.572Z,8.30
2019-05-05T08:52:44.470Z,8.50
2019-05-05T08:55:14.024Z,8.80
2019-05-05T08:57:44.684Z,8.90
2019-05-05T09:00:13.905Z,9.10
2019-05-05T09:02:43.774Z,9.30
2019-05-05T09:05:14.442Z,9.50
2019-05-05T09:07:44.108Z,9.90
2019-05-05T09:10:14.223Z,10.50
2019-05-05T09:12:43.700Z,11.20
2019-05-05T09:15:13.636Z,11.80
2019-05-05T09:17:43.998Z,12.00
2019-05-05T09:20:14.226Z,12.50
2019-05-05T09:22:44.559Z,12.60
2019-05-05T09:25:18.212Z,12.70
2019-05-05T09:27:54.313Z,13.30
2019-05-05T09:30:35.104Z,14.00
2019-05-05T09:33:03.892Z,14.50
2019-05-05T09:35:34.160Z,14.40
2019-05-05T09:38:04.035Z,13.90
2019-05-05T09:40:38.548Z,13.70
2019-05-05T09:43:09.099Z,13.90
2019-05-05T09:45:39.464Z,14.50
2019-05-05T09:48:08.064Z,15.10
2019-05-05T09:50:36.764Z,15.40
2019-05-05T09:53:06.059Z,15.90
2019-05-05T09:55:34.578Z,16.20
2019-05-05T09:58:04.486Z,16.40
2019-05-05T10:00:34.982Z,16.80
2019-05-05T10:03:03.871Z,17.40
2019-05-05T10:05:34.219Z,17.10
2019-05-05T10:08:03.547Z,16.30
2019-05-05T10:10:33.730Z,15.60
2019-05-05T10:13:04.117Z,15.30
2019-05-05T10:15:36.579Z,15.90
2019-05-05T10:18:05.483Z,16.30
2019-05-05T10:20:34.358Z,15.40
2019-05-05T10:23:03.262Z,13.90
2019-05-05T10:25:34.327Z,12.50
2019-05-05T10:28:04.262Z,11.80
2019-05-05T10:30:33.915Z,12.10
2019-05-05T10:33:03.763Z,11.50
2019-05-05T10:35:34.442Z,11.40
2019-05-05T10:38:02.979Z,11.30
2019-05-05T10:40:33.889Z,11.30
2019-05-05T10:43:04.433Z,11.80
2019-05-05T10:45:33.238Z,12.80
2019-05-05T10:48:03.877Z,13.20
2019-05-05T10:50:33.895Z,12.70
2019-05-05T10:53:04.300Z,11.40
2019-05-05T10:55:34.353Z,10.60
2019-05-05T10:58:02.494Z,10.70
2019-05-05T11:00:49.235Z,11.50
2019-05-05T11:03:17.969Z,12.80
2019-05-05T11:05:46.475Z,13.80
2019-05-05T11:08:15.719Z,14.60
2019-05-05T11:10:44.897Z,14.50
2019-05-05T11:13:13.754Z,13.80
2019-05-05T11:15:51.471Z,13.30
2019-05-05T11:18:19.957Z,13.30
2019-05-05T11:20:48.486Z,13.80
2019-05-05T11:23:17.275Z,14.40
2019-05-05T11:25:46.144Z,15.30
2019-05-05T11:28:14.678Z,16.00
2019-05-05T11:30:47.011Z,16.10
2019-05-05T11:33:23.735Z,15.70
2019-05-05T11:36:00.543Z,15.30
2019-05-05T11:38:29.335Z,14.70
2019-05-05T11:40:57.803Z,14.10
2019-05-05T11:43:26.242Z,13.90
2019-05-05T11:45:56.297Z,13.70
2019-05-05T11:48:24.830Z,13.70
2019-05-05T11:50:54.968Z,14.20
2019-05-05T11:53:25.120Z,14.50
2019-05-05T11:55:54.995Z,14.30
2019-05-05T11:58:24.893Z,13.90
2019-05-05T12:00:54.525Z,13.20
2019-05-05T12:03:23.486Z,12.50
2019-05-05T12:05:51.940Z,12.30
2019-05-05T12:08:20.398Z,12.60
2019-05-05T12:10:54.203Z,13.30
2019-05-05T12:13:31.384Z,13.80
2019-05-05T12:16:01.411Z,14.20
2019-05-05T12:18:30.188Z,14.30
2019-05-05T12:20:58.611Z,14.00
2019-05-05T12:23:27.071Z,13.60
2019-05-05T12:25:57.628Z,13.40
2019-05-05T12:28:39.298Z,14.00
2019-05-05T12:31:25.531Z,14.90
2019-05-05T12:33:54.775Z,14.90
2019-05-05T12:36:23.811Z,13.80
2019-05-05T12:38:54.629Z,12.70
2019-05-05T12:41:23.835Z,11.80
2019-05-05T12:43:54.874Z,11.10
2019-05-05T12:46:39.535Z,11.30
2019-05-05T12:49:09.620Z,12.10
2019-05-05T12:51:38.131Z,12.70
2019-05-05T12:54:06.559Z,13.10
2019-05-05T12:56:35.008Z,13.30
2019-05-05T12:59:05.181Z,13.30
2019-05-05T13:01:35.275Z,13.00
2019-05-05T13:04:04.744Z,13.00
2019-05-05T13:06:34.611Z,12.90
2019-05-05T13:09:04.781Z,13.00
2019-05-05T13:11:34.380Z,12.80
2019-05-05T13:14:03.805Z,12.80
2019-05-05T13:16:32.914Z,13.10
2019-05-05T13:19:04.423Z,13.40
2019-05-05T13:21:40.381Z,13.70
2019-05-05T13:24:19.259Z,14.10
2019-05-05T13:26:54.915Z,14.40
2019-05-05T13:29:41.431Z,14.40
2019-05-05T13:32:10.180Z,14.60
2019-05-05T13:34:38.627Z,15.10
2019-05-05T13:37:07.167Z,15.70
2019-05-05T13:39:35.623Z,15.60
2019-05-05T13:42:04.680Z,15.50
2019-05-05T13:44:51.180Z,16.70
2019-05-05T13:47:19.660Z,17.80
2019-05-05T13:49:48.762Z,17.20
2019-05-05T13:52:19.575Z,17.50
2019-05-05T13:54:48.416Z,19.30
2019-05-05T13:57:16.886Z,19.50
2019-05-05T13:59:45.877Z,18.00
2019-05-05T14:02:14.377Z,16.20
2019-05-05T14:04:43.780Z,15.40
2019-05-05T14:07:12.570Z,15.40
2019-05-05T14:09:41.015Z,15.60
2019-05-05T14:12:10.467Z,16.20
2019-05-05T14:14:39.206Z,16.70
2019-05-05T14:17:07.715Z,17.20
2019-05-05T14:19:36.595Z,17.50
2019-05-05T14:22:05.085Z,17.60
2019-05-05T14:24:35.158Z,18.30
2019-05-05T14:27:04.513Z,18.50
2019-05-05T14:29:43.878Z,17.60
2019-05-05T14:32:21.414Z,18.10
2019-05-05T14:34:51.536Z,16.20
2019-05-05T14:37:27.791Z,16.70
2019-05-05T14:39:56.363Z,18.50
2019-05-05T14:42:24.802Z,20.70
2019-05-05T14:44:54.522Z,20.30
2019-05-05T14:47:24.480Z,19.10
2019-05-05T14:49:54.064Z,18.00
2019-05-05T14:52:24.909Z,16.90
2019-05-05T14:54:54.391Z,17.30
2019-05-05T14:57:24.823Z,18.90
2019-05-05T14:59:53.962Z,19.30
2019-05-05T15:02:24.391Z,18.40
2019-05-05T15:04:53.983Z,17.10
2019-05-05T15:07:25.129Z,16.00
2019-05-05T15:09:55.203Z,15.40
2019-05-05T15:12:37.504Z,15.90
2019-05-05T15:15:07.547Z,16.20
2019-05-05T15:17:36.071Z,16.80
2019-05-05T15:20:09.679Z,17.80
2019-05-05T15:22:38.142Z,18.80
2019-05-05T15:25:07.307Z,18.90
2019-05-05T15:27:35.752Z,18.70
2019-05-05T15:30:08.398Z,19.10
2019-05-05T15:32:37.148Z,19.70
2019-05-05T15:35:07.591Z,19.30
2019-05-05T15:37:36.142Z,18.20
2019-05-05T15:40:05.407Z,17.30
2019-05-05T15:42:34.123Z,18.10
2019-05-05T15:45:04.025Z,19.70
2019-05-05T15:47:34.312Z,19.90
2019-05-05T15:50:05.607Z,18.40
2019-05-05T15:52:35.116Z,17.90
2019-05-05T15:55:08.435Z,18.20
2019-05-05T15:57:36.971Z,19.20
2019-05-05T16:00:07.460Z,20.80
2019-05-05T16:02:36.161Z,20.30
2019-05-05T16:05:09.527Z,18.60
2019-05-05T16:07:37.999Z,17.00
2019-05-05T16:10:07.784Z,15.00
2019-05-05T16:12:39.856Z,13.80
2019-05-05T16:15:27.751Z,12.80
2019-05-05T16:18:13.724Z,12.10
2019-05-05T16:20:56.010Z,12.20
2019-05-05T16:23:28.609Z,12.50
2019-05-05T16:25:57.132Z,13.00
2019-05-05T16:28:25.596Z,13.40
2019-05-05T16:30:56.083Z,13.50
2019-05-05T16:33:24.284Z,13.10
2019-05-05T16:35:52.718Z,13.00
2019-05-05T16:38:23.909Z,13.00
2019-05-05T16:40:53.623Z,12.90
2019-05-05T16:43:22.067Z,13.70
2019-05-05T16:45:51.030Z,15.40
2019-05-05T16:48:19.625Z,16.10
2019-05-05T16:50:48.135Z,16.20
2019-05-05T16:53:34.728Z,16.60
2019-05-05T16:56:04.923Z,17.00
2019-05-05T16:58:36.710Z,17.20
2019-05-05T17:01:06.903Z,16.80
2019-05-05T17:03:35.435Z,16.60
2019-05-05T17:06:03.954Z,15.60
2019-05-05T17:08:33.800Z,15.30
2019-05-05T17:11:02.705Z,15.40
2019-05-05T17:13:39.215Z,15.10
2019-05-05T17:16:09.628Z,14.90
2019-05-05T17:18:39.708Z,14.60
2019-05-05T17:21:09.775Z,14.10
2019-05-05T17:23:38.702Z,13.40
2019-05-05T17:26:07.640Z,13.10
2019-05-05T17:28:36.130Z,12.90
2019-05-05T17:31:04.904Z,13.10
2019-05-05T17:33:33.896Z,13.30
2019-05-05T17:36:04.503Z,13.50
2019-05-05T17:38:34.104Z,13.40
2019-05-05T17:41:20.568Z,13.00
2019-05-05T17:43:54.219Z,12.70
2019-05-05T17:46:40.602Z,12.30
2019-05-05T17:49:26.789Z,11.80
2019-05-05T17:51:57.797Z,11.40
2019-05-05T17:54:30.559Z,10.90
2019-05-05T17:56:59.105Z,10.40
2019-05-05T17:59:27.620Z,9.90
2019-05-05T18:01:56.044Z,9.60
2019-05-05T18:04:24.788Z,9.30
2019-05-05T18:07:04.318Z,9.10
2019-05-05T18:09:34.529Z,9.00
2019-05-05T18:12:13.931Z,8.90
2019-05-05T18:14:47.887Z,8.80
2019-05-05T18:17:16.341Z,8.70
2019-05-05T18:19:45.079Z,8.60
2019-05-05T18:22:14.019Z,8.50
2019-05-05T18:24:44.518Z,8.50
2019-05-05T18:27:14.108Z,8.40
2019-05-05T18:29:44.393Z,8.30
2019-05-05T18:32:13.894Z,8.20
2019-05-05T18:34:44.986Z,8.10
2019-05-05T18:37:14.566Z,8.10
2019-05-05T18:39:43.904Z,8.10
2019-05-05T18:42:14.623Z,8.00
2019-05-05T18:44:47.604Z,7.90
2019-05-05T18:47:18.624Z,7.90
2019-05-05T18:49:47.312Z,7.90
2019-05-05T18:52:15.829Z,7.90
2019-05-05T18:54:44.645Z,7.90
2019-05-05T18:57:13.163Z,7.90
2019-05-05T18:59:41.755Z,8.00
2019-05-05T19:02:14.416Z,8.00
2019-05-05T19:04:59.982Z,7.90
2019-05-05T19:07:30.085Z,7.90
2019-05-05T19:09:58.543Z,7.80
2019-05-05T19:12:27.001Z,7.80
2019-05-05T19:14:55.506Z,7.70
2019-05-05T19:17:24.215Z,7.60
2019-05-05T19:19:55.020Z,7.60
2019-05-05T19:22:23.557Z,7.40
2019-05-05T19:24:52.029Z,7.20
2019-05-05T19:27:20.481Z,7.10
2019-05-05T19:29:48.918Z,7.00
2019-05-05T19:32:17.770Z,6.90
2019-05-05T19:34:48.077Z,6.90
2019-05-05T19:37:16.867Z,7.00
2019-05-05T19:39:47.805Z,7.00
2019-05-05T19:42:16.218Z,7.00
2019-05-05T19:44:44.985Z,6.80
2019-05-05T19:47:15.066Z,6.70
2019-05-05T19:49:45.515Z,6.60
2019-05-05T19:52:13.975Z,6.60
2019-05-05T19:54:46.834Z,6.50
2019-05-05T19:57:14.305Z,6.50
2019-05-05T19:59:44.703Z,6.50
2019-05-05T20:02:13.149Z,6.50
2019-05-05T20:04:41.661Z,6.40
2019-05-05T20:07:10.207Z,6.30
2019-05-05T20:09:38.651Z,6.20
2019-05-05T20:12:07.101Z,6.10
2019-05-05T20:14:35.574Z,6.00
2019-05-05T20:17:05.883Z,5.90
2019-05-05T20:19:37.224Z,6.00
2019-05-05T20:22:05.696Z,5.90
2019-05-05T20:24:34.147Z,5.90
2019-05-05T20:27:04.511Z,5.90
2019-05-05T20:29:36.784Z,5.80
2019-05-05T20:32:04.442Z,5.70
2019-05-05T20:34:40.795Z,5.60
2019-05-05T20:37:10.884Z,5.50
2019-05-05T20:39:39.398Z,5.50
2019-05-05T20:42:08.303Z,5.50
2019-05-05T20:44:37.477Z,5.50
2019-05-05T20:47:06.075Z,5.50
2019-05-05T20:49:34.945Z,5.40
2019-05-05T20:52:03.807Z,5.40
2019-05-05T20:54:32.810Z,5.30
2019-05-05T20:57:01.274Z,5.30
2019-05-05T20:59:31.152Z,5.30
2019-05-05T21:02:00.183Z,5.30
2019-05-05T21:04:28.980Z,5.30
2019-05-05T21:06:57.423Z,5.30
2019-05-05T21:09:25.872Z,5.20
2019-05-05T21:11:54.962Z,5.20
2019-05-05T21:14:33.675Z,5.20
2019-05-05T21:16:54.720Z,5.20
2019-05-05T21:19:24.772Z,5.10
2019-05-05T21:21:55.120Z,5.10
2019-05-05T21:24:24.038Z,5.00
2019-05-05T21:26:54.578Z,5.00
2019-05-05T21:29:23.702Z,4.90
2019-05-05T21:31:54.650Z,4.90
2019-05-05T21:34:24.660Z,5.00
2019-05-05T21:36:54.013Z,5.00
2019-05-05T21:39:24.868Z,5.00
2019-05-05T21:41:53.143Z,4.90
2019-05-05T21:44:21.582Z,4.90
2019-05-05T21:46:50.059Z,4.80
2019-05-05T21:49:18.825Z,4.60
2019-05-05T21:51:49.360Z,4.50
2019-05-05T21:54:28.795Z,4.30
2019-05-05T21:57:07.668Z,4.20
2019-05-05T21:59:36.135Z,4.10
2019-05-05T22:02:05.339Z,4.00
2019-05-05T22:04:33.871Z,3.90
2019-05-05T22:07:03.706Z,3.90
2019-05-05T22:09:32.375Z,3.80
2019-05-05T22:12:01.244Z,3.80
2019-05-05T22:14:29.715Z,3.80
2019-05-05T22:16:58.508Z,3.90
2019-05-05T22:19:28.611Z,3.90
2019-05-05T22:22:03.783Z,3.90
2019-05-05T22:24:33.342Z,3.90
2019-05-05T22:27:04.554Z,3.80
2019-05-05T22:29:34.215Z,3.80
2019-05-05T22:32:06.025Z,3.80
2019-05-05T22:34:33.550Z,3.90
2019-05-05T22:37:05.439Z,3.90
2019-05-05T22:39:33.823Z,4.00
2019-05-05T22:42:04.560Z,3.90
2019-05-05T22:44:33.862Z,3.90
2019-05-05T22:47:04.676Z,3.90
2019-05-05T22:49:32.980Z,3.90
2019-05-05T22:52:03.699Z,3.90
2019-05-05T22:54:33.636Z,4.00
2019-05-05T22:57:04.449Z,4.00
2019-05-05T22:59:33.084Z,3.90
2019-05-05T23:02:03.803Z,3.90
2019-05-05T23:04:43.850Z,3.90
2019-05-05T23:07:20.033Z,3.80
2019-05-05T23:09:48.501Z,3.80
2019-05-05T23:12:17.394Z,3.80
2019-05-05T23:14:45.866Z,3.80
2019-05-05T23:17:16.407Z,3.70
2019-05-05T23:20:04.667Z,3.70
2019-05-05T23:22:34.860Z,3.60
2019-05-05T23:25:06.295Z,3.60
2019-05-05T23:27:46.495Z,3.60
2019-05-05T23:30:16.886Z,3.70
2019-05-05T23:32:47.671Z,3.60
2019-05-05T23:35:17.061Z,3.50
2019-05-05T23:37:46.141Z,3.50
2019-05-05T23:40:28.024Z,3.50
2019-05-05T23:42:56.904Z,3.50
2019-05-05T23:45:25.359Z,3.50
2019-05-05T23:47:54.500Z,3.50
2019-05-05T23:50:24.030Z,3.50
2019-05-05T23:52:54.586Z,3.50
2019-05-05T23:55:23.983Z,3.50
2019-05-05T23:57:54.751Z,3.40
